FRIANT DAM (MILLERTON) (MIL)

Elevation: 581' · SAN JOAQUIN R basin · Operator: US Bureau of Reclamation


Station comments:

11/19/2014Hourly storage has resumed as of 11/19/2014. It had previously stopped at 2/26/1998.


Provisional data, subject to change.
Query executed Wednesday at 4:08:45   clock

Select a sensor type for a plot of data.
Note: Reservoir Flows are daily averages.

Earlier

Date RES ELE    STORAGE    RES CHG    TOC STO    ABV TOC    OUTFLOW    INFLOW    EVAP    FNF    RIV REL    PPT INC    SPILL   
 FEET   AF   AF   AF   AF   CFS   CFS   CFS   CFS   CFS   INCHES   CFS  
10/28/2014 485.01 174322 -258 435500 -261178 165 48 13 53 165 0.00 0
10/29/2014 484.92 174091 -231 435500 -260428 165 61 12 102 165 0.00 0
10/30/2014 485.27 174014 -77 435500 -261486 165 141 15 -268 165 0.00 0
10/31/2014 485.41 175356 1342 435500 -260144 165 864 22 69 165 0.00 0
11/01/2014 486.01 176907 1551 435500 -258593 156 963 25 376 156 0.27 0
11/02/2014 486.55 178316 1409 435500 -257184 151 869 8 53 151 0.01 0
11/03/2014 486.92 179281 965 435500 -256219 151 647 9 398 151 0.00 0
11/04/2014 487.04 179595 314 435500 -255905 151 314 5 200 151 0.00 0
11/05/2014 487.16 179911 342 435500 -255589 162 340 6 169 162 0.00 0
11/06/2014 487.20 180016 132 435500 -255484 167 242 8 162 167 0.00 0
11/07/2014 487.26 180174 105 435500 -255326 167 229 9 203 167 0.00 0
11/08/2014 487.19 179990 -184 435500 -255510 167 81 7 150 167 0.00 0
11/09/2014 487.10 177142 -211 435500 -258358 167 72 11 122 167 0.00 0
11/10/2014 487.05 179622 -157 435500 -255878 167 94 6 131 167 0.00 0
11/11/2014 486.97 179412 -210 435500 -256088 166 64 4 126 166 0.00 0
11/12/2014 486.86 179125 -287 435500 -256375 166 29 8 94 166 0.02 0
11/13/2014 486.77 178889 -235 435500 -256611 166 49 1 227 166 0.24 0
11/14/2014 486.69 178681 -209 435500 -256819 166 69 8 205 166 0.00 0
11/15/2014 486.59 178420 -261 435500 -257080 156 30 6 115 156 0.00 0
11/16/2014 486.51 178212 -208 435500 -- 151 48 2 114 151 0.00 0
11/17/2014 486.41 177951 -261 435500 -257549 151 27 8 114 151 0.00 0
11/18/2014 486.32 177716 -235 435500 -257784 151 53 20 100 151 0.00 0
11/19/2014 486.26 177559 -157 435500 -257941 151 84 12 145 151 0.14 0
11/20/2014 486.18 177351 -208 435500 -258149 151 49 3 128 151 0.00 0
11/21/2014 486.10 177142 -209 435500 -- 160 60 5 126 160 0.00 0
11/22/2014 486.02 176933 -209 435500 -- 164 59 0 154 164 0.03 0
11/23/2014 485.95 176752 -181 435500 -258748 164 74 1 128 164 0.00 0
11/24/2014 485.86 176519 -233 435500 -258981 164 53 6 125 164 0.00 0
11/25/2014 485.76 176261 -258 -- -- -- -- -- -- -- -- --
11/26/2014 -- -- -- -- -- -- -- -- -- -- -- --

Later | Latest

Warning! This data is preliminary and subject to revision.

Show MIL Map | Plot MIL Data | 1 Month MIL Data | Real-Time MIL Data | MIL Info